Terminal Aerodrome Forecast
Issued by NWS Lake Charles, LA

Home | Current Version | Previous Version | Text Only | Print | Product List | Glossary On
Versions: 1 2 3 4 5 6 7 8 9 10 11 12 13 14 15 16 17 18
000
FTUS44 KLCH 271130
TAFBPT
TAF
KBPT 271130Z 2712/2812 17006KT P6SM SCT008 BKN025
      TEMPO 2712/2714 4SM BR
     FM271700 18012G18KT P6SM VCTS SCT025CB BKN035
     FM280000 16005KT P6SM BKN015
     FM280300 16005KT 4SM BR BKN008=

USA.gov is the U.S. government's official web portal to all federal, state and local government web resources and services.